sensor_id;sensor_type;location;lat;lon;timestamp;P1;durP1;ratioP1;P2;durP2;ratioP2
30096;SDS011;16915;51.466;3.610;2024-03-08T00:01:35;45.88;;;18.08;;
30096;SDS011;16915;51.466;3.610;2024-03-08T00:04:00;51.08;;;20.48;;
30096;SDS011;16915;51.466;3.610;2024-03-08T00:06:26;44.20;;;18.63;;
30096;SDS011;16915;51.466;3.610;2024-03-08T00:08:52;44.78;;;19.83;;
30096;SDS011;16915;51.466;3.610;2024-03-08T00:11:17;53.85;;;20.65;;
30096;SDS011;16915;51.466;3.610;2024-03-08T00:13:43;51.60;;;19.05;;
30096;SDS011;16915;51.466;3.610;2024-03-08T00:16:10;47.65;;;19.35;;
30096;SDS011;16915;51.466;3.610;2024-03-08T00:18:35;47.08;;;19.02;;
30096;SDS011;16915;51.466;3.610;2024-03-08T00:21:01;46.20;;;19.50;;
30096;SDS011;16915;51.466;3.610;2024-03-08T00:23:27;46.78;;;17.92;;
30096;SDS011;16915;51.466;3.610;2024-03-08T00:25:53;52.58;;;20.00;;
30096;SDS011;16915;51.466;3.610;2024-03-08T00:28:19;43.78;;;16.52;;
30096;SDS011;16915;51.466;3.610;2024-03-08T00:30:45;52.90;;;20.05;;
30096;SDS011;16915;51.466;3.610;2024-03-08T00:33:11;50.50;;;19.77;;
30096;SDS011;16915;51.466;3.610;2024-03-08T00:35:37;46.45;;;19.33;;
30096;SDS011;16915;51.466;3.610;2024-03-08T00:38:03;46.95;;;19.38;;
30096;SDS011;16915;51.466;3.610;2024-03-08T00:40:28;45.80;;;18.77;;
30096;SDS011;16915;51.466;3.610;2024-03-08T00:42:54;51.33;;;21.75;;
30096;SDS011;16915;51.466;3.610;2024-03-08T00:45:19;43.08;;;18.45;;
30096;SDS011;16915;51.466;3.610;2024-03-08T00:47:45;50.05;;;20.05;;
30096;SDS011;16915;51.466;3.610;2024-03-08T00:50:11;51.47;;;19.60;;
30096;SDS011;16915;51.466;3.610;2024-03-08T00:52:37;46.42;;;19.20;;
30096;SDS011;16915;51.466;3.610;2024-03-08T00:55:03;45.13;;;19.38;;
30096;SDS011;16915;51.466;3.610;2024-03-08T00:57:29;44.28;;;19.80;;
30096;SDS011;16915;51.466;3.610;2024-03-08T00:59:55;49.85;;;19.23;;
30096;SDS011;16915;51.466;3.610;2024-03-08T01:02:21;44.63;;;19.40;;
30096;SDS011;16915;51.466;3.610;2024-03-08T01:04:48;46.72;;;18.85;;
30096;SDS011;16915;51.466;3.610;2024-03-08T01:07:13;46.30;;;19.42;;
30096;SDS011;16915;51.466;3.610;2024-03-08T01:09:39;42.50;;;18.75;;
30096;SDS011;16915;51.466;3.610;2024-03-08T01:12:05;43.40;;;18.92;;
30096;SDS011;16915;51.466;3.610;2024-03-08T01:14:32;42.28;;;19.38;;
30096;SDS011;16915;51.466;3.610;2024-03-08T01:16:58;47.80;;;20.42;;
30096;SDS011;16915;51.466;3.610;2024-03-08T01:19:24;48.42;;;19.00;;
30096;SDS011;16915;51.466;3.610;2024-03-08T01:21:49;48.30;;;19.92;;
30096;SDS011;16915;51.466;3.610;2024-03-08T01:24:15;47.03;;;19.88;;
30096;SDS011;16915;51.466;3.610;2024-03-08T01:26:41;47.58;;;18.25;;
30096;SDS011;16915;51.466;3.610;2024-03-08T01:29:06;45.03;;;19.05;;
30096;SDS011;16915;51.466;3.610;2024-03-08T01:31:33;48.63;;;20.05;;
30096;SDS011;16915;51.466;3.610;2024-03-08T01:33:58;42.40;;;17.63;;
30096;SDS011;16915;51.466;3.610;2024-03-08T01:36:24;40.47;;;18.08;;
30096;SDS011;16915;51.466;3.610;2024-03-08T01:38:50;41.90;;;18.25;;
30096;SDS011;16915;51.466;3.610;2024-03-08T01:41:16;45.03;;;18.60;;
30096;SDS011;16915;51.466;3.610;2024-03-08T01:43:42;45.75;;;18.58;;
30096;SDS011;16915;51.466;3.610;2024-03-08T01:46:08;43.88;;;18.38;;
30096;SDS011;16915;51.466;3.610;2024-03-08T01:48:35;43.28;;;17.90;;
30096;SDS011;16915;51.466;3.610;2024-03-08T01:51:02;40.33;;;19.02;;
30096;SDS011;16915;51.466;3.610;2024-03-08T01:53:28;40.72;;;17.92;;
30096;SDS011;16915;51.466;3.610;2024-03-08T01:55:56;41.05;;;16.90;;
30096;SDS011;16915;51.466;3.610;2024-03-08T01:58:23;43.40;;;18.08;;
30096;SDS011;16915;51.466;3.610;2024-03-08T02:00:49;41.22;;;17.75;;
30096;SDS011;16915;51.466;3.610;2024-03-08T02:03:15;40.10;;;17.50;;
30096;SDS011;16915;51.466;3.610;2024-03-08T02:05:41;39.33;;;16.70;;
30096;SDS011;16915;51.466;3.610;2024-03-08T02:08:08;43.42;;;18.75;;
30096;SDS011;16915;51.466;3.610;2024-03-08T02:10:40;38.97;;;17.70;;
30096;SDS011;16915;51.466;3.610;2024-03-08T02:13:09;36.60;;;16.65;;
30096;SDS011;16915;51.466;3.610;2024-03-08T02:18:21;41.28;;;18.10;;
30096;SDS011;16915;51.466;3.610;2024-03-08T02:20:56;40.40;;;17.77;;
30096;SDS011;16915;51.466;3.610;2024-03-08T02:23:27;39.00;;;18.00;;
30096;SDS011;16915;51.466;3.610;2024-03-08T02:25:54;43.30;;;18.55;;
30096;SDS011;16915;51.466;3.610;2024-03-08T02:28:21;41.17;;;19.10;;
30096;SDS011;16915;51.466;3.610;2024-03-08T02:30:47;36.17;;;16.95;;
30096;SDS011;16915;51.466;3.610;2024-03-08T02:33:14;36.00;;;17.90;;
30096;SDS011;16915;51.466;3.610;2024-03-08T02:35:43;36.40;;;18.08;;
30096;SDS011;16915;51.466;3.610;2024-03-08T02:38:12;40.55;;;18.63;;
30096;SDS011;16915;51.466;3.610;2024-03-08T02:40:45;34.95;;;16.60;;
30096;SDS011;16915;51.466;3.610;2024-03-08T02:43:12;37.97;;;17.83;;
30096;SDS011;16915;51.466;3.610;2024-03-08T02:45:39;35.97;;;16.35;;
30096;SDS011;16915;51.466;3.610;2024-03-08T02:48:07;37.80;;;17.58;;
30096;SDS011;16915;51.466;3.610;2024-03-08T02:50:33;38.70;;;17.33;;
30096;SDS011;16915;51.466;3.610;2024-03-08T02:53:00;40.42;;;18.40;;
30096;SDS011;16915;51.466;3.610;2024-03-08T02:55:25;45.20;;;18.67;;
30096;SDS011;16915;51.466;3.610;2024-03-08T02:57:52;36.30;;;17.35;;
30096;SDS011;16915;51.466;3.610;2024-03-08T03:00:21;34.80;;;17.23;;
30096;SDS011;16915;51.466;3.610;2024-03-08T03:02:48;41.72;;;18.75;;
30096;SDS011;16915;51.466;3.610;2024-03-08T03:07:45;38.55;;;17.05;;
30096;SDS011;16915;51.466;3.610;2024-03-08T03:10:10;39.33;;;17.95;;
30096;SDS011;16915;51.466;3.610;2024-03-08T03:12:37;37.75;;;17.40;;
30096;SDS011;16915;51.466;3.610;2024-03-08T03:15:03;34.67;;;18.25;;
30096;SDS011;16915;51.466;3.610;2024-03-08T03:17:29;34.75;;;16.58;;
30096;SDS011;16915;51.466;3.610;2024-03-08T03:19:55;38.83;;;18.45;;
30096;SDS011;16915;51.466;3.610;2024-03-08T03:22:20;38.85;;;17.85;;
30096;SDS011;16915;51.466;3.610;2024-03-08T03:24:46;36.38;;;18.02;;
30096;SDS011;16915;51.466;3.610;2024-03-08T03:27:12;31.58;;;16.42;;
30096;SDS011;16915;51.466;3.610;2024-03-08T03:29:40;41.05;;;17.20;;
30096;SDS011;16915;51.466;3.610;2024-03-08T03:32:14;38.13;;;18.13;;
30096;SDS011;16915;51.466;3.610;2024-03-08T03:34:40;38.63;;;19.20;;
30096;SDS011;16915;51.466;3.610;2024-03-08T03:37:07;34.10;;;16.27;;
30096;SDS011;16915;51.466;3.610;2024-03-08T03:39:33;41.42;;;17.45;;
30096;SDS011;16915;51.466;3.610;2024-03-08T03:42:02;36.80;;;17.75;;
30096;SDS011;16915;51.466;3.610;2024-03-08T03:44:30;38.53;;;18.75;;
30096;SDS011;16915;51.466;3.610;2024-03-08T03:46:56;34.60;;;17.25;;
30096;SDS011;16915;51.466;3.610;2024-03-08T03:49:21;33.92;;;17.45;;
30096;SDS011;16915;51.466;3.610;2024-03-08T03:51:48;37.38;;;17.70;;
30096;SDS011;16915;51.466;3.610;2024-03-08T03:54:14;39.22;;;17.92;;
30096;SDS011;16915;51.466;3.610;2024-03-08T03:56:39;36.00;;;16.65;;
30096;SDS011;16915;51.466;3.610;2024-03-08T03:59:05;38.28;;;18.65;;
30096;SDS011;16915;51.466;3.610;2024-03-08T04:01:32;32.55;;;15.65;;
30096;SDS011;16915;51.466;3.610;2024-03-08T04:03:58;35.67;;;17.50;;
30096;SDS011;16915;51.466;3.610;2024-03-08T04:06:23;33.22;;;17.08;;
30096;SDS011;16915;51.466;3.610;2024-03-08T04:08:49;37.03;;;17.45;;
30096;SDS011;16915;51.466;3.610;2024-03-08T04:11:15;31.08;;;16.70;;
30096;SDS011;16915;51.466;3.610;2024-03-08T04:13:42;33.42;;;15.93;;
30096;SDS011;16915;51.466;3.610;2024-03-08T04:16:07;37.53;;;16.98;;
30096;SDS011;16915;51.466;3.610;2024-03-08T04:18:34;37.00;;;16.77;;
30096;SDS011;16915;51.466;3.610;2024-03-08T04:21:01;36.35;;;17.30;;
30096;SDS011;16915;51.466;3.610;2024-03-08T04:23:27;34.60;;;17.13;;
30096;SDS011;16915;51.466;3.610;2024-03-08T04:25:53;38.92;;;18.42;;
30096;SDS011;16915;51.466;3.610;2024-03-08T04:28:19;32.33;;;16.50;;
30096;SDS011;16915;51.466;3.610;2024-03-08T04:30:44;38.92;;;18.80;;
30096;SDS011;16915;51.466;3.610;2024-03-08T04:33:11;30.40;;;17.02;;
30096;SDS011;16915;51.466;3.610;2024-03-08T04:35:37;33.00;;;16.55;;
30096;SDS011;16915;51.466;3.610;2024-03-08T04:38:02;34.30;;;16.73;;
30096;SDS011;16915;51.466;3.610;2024-03-08T04:40:30;37.40;;;17.63;;
30096;SDS011;16915;51.466;3.610;2024-03-08T04:42:56;35.95;;;18.48;;
30096;SDS011;16915;51.466;3.610;2024-03-08T04:45:24;31.27;;;15.63;;
30096;SDS011;16915;51.466;3.610;2024-03-08T04:47:51;42.97;;;16.92;;
30096;SDS011;16915;51.466;3.610;2024-03-08T04:50:17;36.55;;;17.35;;
30096;SDS011;16915;51.466;3.610;2024-03-08T04:52:43;31.30;;;16.13;;
30096;SDS011;16915;51.466;3.610;2024-03-08T04:55:08;31.95;;;15.32;;
30096;SDS011;16915;51.466;3.610;2024-03-08T04:57:34;33.67;;;17.48;;
30096;SDS011;16915;51.466;3.610;2024-03-08T05:00:00;33.53;;;15.30;;
30096;SDS011;16915;51.466;3.610;2024-03-08T05:02:27;36.20;;;17.20;;
30096;SDS011;16915;51.466;3.610;2024-03-08T05:04:53;32.45;;;16.33;;
30096;SDS011;16915;51.466;3.610;2024-03-08T05:07:18;35.47;;;16.63;;
30096;SDS011;16915;51.466;3.610;2024-03-08T05:09:44;29.27;;;14.50;;
30096;SDS011;16915;51.466;3.610;2024-03-08T05:12:16;28.67;;;15.60;;
30096;SDS011;16915;51.466;3.610;2024-03-08T05:14:42;33.85;;;15.38;;
30096;SDS011;16915;51.466;3.610;2024-03-08T05:17:08;30.55;;;16.13;;
30096;SDS011;16915;51.466;3.610;2024-03-08T05:19:34;31.45;;;15.48;;
30096;SDS011;16915;51.466;3.610;2024-03-08T05:22:01;37.95;;;17.73;;
30096;SDS011;16915;51.466;3.610;2024-03-08T05:24:26;33.15;;;16.10;;
30096;SDS011;16915;51.466;3.610;2024-03-08T05:26:52;31.60;;;16.02;;
30096;SDS011;16915;51.466;3.610;2024-03-08T05:29:18;43.05;;;17.60;;
30096;SDS011;16915;51.466;3.610;2024-03-08T05:31:50;32.97;;;16.13;;
30096;SDS011;16915;51.466;3.610;2024-03-08T05:34:19;30.85;;;15.63;;
30096;SDS011;16915;51.466;3.610;2024-03-08T05:36:46;31.10;;;16.17;;
30096;SDS011;16915;51.466;3.610;2024-03-08T05:39:14;33.92;;;16.33;;
30096;SDS011;16915;51.466;3.610;2024-03-08T05:41:40;33.83;;;16.80;;
30096;SDS011;16915;51.466;3.610;2024-03-08T05:44:06;26.67;;;14.50;;
30096;SDS011;16915;51.466;3.610;2024-03-08T05:46:33;33.35;;;16.35;;
30096;SDS011;16915;51.466;3.610;2024-03-08T05:48:59;28.42;;;15.43;;
30096;SDS011;16915;51.466;3.610;2024-03-08T05:51:25;31.10;;;16.52;;
30096;SDS011;16915;51.466;3.610;2024-03-08T05:53:53;32.53;;;16.52;;
30096;SDS011;16915;51.466;3.610;2024-03-08T05:56:20;31.35;;;15.30;;
30096;SDS011;16915;51.466;3.610;2024-03-08T05:58:47;31.90;;;15.98;;
30096;SDS011;16915;51.466;3.610;2024-03-08T06:01:15;35.95;;;16.33;;
30096;SDS011;16915;51.466;3.610;2024-03-08T06:03:40;31.80;;;16.02;;
30096;SDS011;16915;51.466;3.610;2024-03-08T06:06:11;36.17;;;16.60;;
30096;SDS011;16915;51.466;3.610;2024-03-08T06:08:37;34.22;;;16.02;;
30096;SDS011;16915;51.466;3.610;2024-03-08T06:11:03;34.35;;;15.75;;
30096;SDS011;16915;51.466;3.610;2024-03-08T06:13:31;34.80;;;17.63;;
30096;SDS011;16915;51.466;3.610;2024-03-08T06:15:56;32.50;;;16.65;;
30096;SDS011;16915;51.466;3.610;2024-03-08T06:18:22;30.77;;;15.73;;
30096;SDS011;16915;51.466;3.610;2024-03-08T06:20:48;32.30;;;15.57;;
30096;SDS011;16915;51.466;3.610;2024-03-08T06:23:13;36.05;;;16.88;;
30096;SDS011;16915;51.466;3.610;2024-03-08T06:25:43;34.10;;;16.42;;
30096;SDS011;16915;51.466;3.610;2024-03-08T06:28:09;30.23;;;15.88;;
30096;SDS011;16915;51.466;3.610;2024-03-08T06:30:34;38.45;;;16.58;;
30096;SDS011;16915;51.466;3.610;2024-03-08T06:33:00;28.65;;;15.32;;
30096;SDS011;16915;51.466;3.610;2024-03-08T06:35:26;31.15;;;16.58;;
30096;SDS011;16915;51.466;3.610;2024-03-08T06:37:51;27.33;;;15.27;;
30096;SDS011;16915;51.466;3.610;2024-03-08T06:40:17;28.95;;;15.18;;
30096;SDS011;16915;51.466;3.610;2024-03-08T06:42:42;32.03;;;16.35;;
30096;SDS011;16915;51.466;3.610;2024-03-08T06:45:08;33.58;;;16.13;;
30096;SDS011;16915;51.466;3.610;2024-03-08T06:47:35;33.92;;;15.07;;
30096;SDS011;16915;51.466;3.610;2024-03-08T06:50:01;29.65;;;15.77;;
30096;SDS011;16915;51.466;3.610;2024-03-08T06:52:28;24.23;;;13.05;;
30096;SDS011;16915;51.466;3.610;2024-03-08T06:54:54;34.60;;;15.27;;
30096;SDS011;16915;51.466;3.610;2024-03-08T06:57:20;31.40;;;16.23;;
30096;SDS011;16915;51.466;3.610;2024-03-08T06:59:48;36.45;;;17.38;;
30096;SDS011;16915;51.466;3.610;2024-03-08T07:02:14;34.75;;;17.35;;
30096;SDS011;16915;51.466;3.610;2024-03-08T07:04:40;30.00;;;15.88;;
30096;SDS011;16915;51.466;3.610;2024-03-08T07:07:06;28.02;;;15.18;;
30096;SDS011;16915;51.466;3.610;2024-03-08T07:09:37;22.88;;;12.70;;
30096;SDS011;16915;51.466;3.610;2024-03-08T07:12:03;31.30;;;15.18;;
30096;SDS011;16915;51.466;3.610;2024-03-08T07:14:29;33.10;;;14.60;;
30096;SDS011;16915;51.466;3.610;2024-03-08T07:16:56;32.30;;;15.75;;
30096;SDS011;16915;51.466;3.610;2024-03-08T07:19:21;33.58;;;16.10;;
30096;SDS011;16915;51.466;3.610;2024-03-08T07:21:47;41.33;;;16.67;;
30096;SDS011;16915;51.466;3.610;2024-03-08T07:24:13;31.15;;;15.10;;
30096;SDS011;16915;51.466;3.610;2024-03-08T07:26:42;34.60;;;16.25;;
30096;SDS011;16915;51.466;3.610;2024-03-08T07:29:08;30.48;;;15.80;;
30096;SDS011;16915;51.466;3.610;2024-03-08T07:31:34;32.38;;;15.82;;
30096;SDS011;16915;51.466;3.610;2024-03-08T07:34:02;32.50;;;13.73;;
30096;SDS011;16915;51.466;3.610;2024-03-08T07:36:33;31.45;;;15.63;;
30096;SDS011;16915;51.466;3.610;2024-03-08T07:39:00;24.30;;;13.27;;
30096;SDS011;16915;51.466;3.610;2024-03-08T07:41:26;26.30;;;13.80;;
30096;SDS011;16915;51.466;3.610;2024-03-08T07:43:52;25.05;;;14.02;;
30096;SDS011;16915;51.466;3.610;2024-03-08T07:46:18;31.27;;;15.07;;
30096;SDS011;16915;51.466;3.610;2024-03-08T07:48:43;32.25;;;16.13;;
30096;SDS011;16915;51.466;3.610;2024-03-08T07:51:10;26.02;;;14.50;;
30096;SDS011;16915;51.466;3.610;2024-03-08T07:53:37;23.00;;;11.18;;
30096;SDS011;16915;51.466;3.610;2024-03-08T07:56:03;29.75;;;12.82;;
30096;SDS011;16915;51.466;3.610;2024-03-08T07:58:30;31.15;;;15.98;;
30096;SDS011;16915;51.466;3.610;2024-03-08T08:00:55;25.98;;;14.77;;
30096;SDS011;16915;51.466;3.610;2024-03-08T08:03:21;34.00;;;15.18;;
30096;SDS011;16915;51.466;3.610;2024-03-08T08:05:46;28.80;;;13.40;;
30096;SDS011;16915;51.466;3.610;2024-03-08T08:08:14;27.70;;;14.43;;
30096;SDS011;16915;51.466;3.610;2024-03-08T08:10:40;29.73;;;14.05;;
30096;SDS011;16915;51.466;3.610;2024-03-08T08:13:05;27.58;;;14.07;;
30096;SDS011;16915;51.466;3.610;2024-03-08T08:15:31;25.50;;;14.23;;
30096;SDS011;16915;51.466;3.610;2024-03-08T08:17:59;25.45;;;11.10;;
30096;SDS011;16915;51.466;3.610;2024-03-08T08:20:25;33.58;;;16.13;;
30096;SDS011;16915;51.466;3.610;2024-03-08T08:22:52;26.15;;;13.65;;
30096;SDS011;16915;51.466;3.610;2024-03-08T08:25:20;27.48;;;15.30;;
30096;SDS011;16915;51.466;3.610;2024-03-08T08:27:46;22.60;;;12.40;;
30096;SDS011;16915;51.466;3.610;2024-03-08T08:30:12;26.70;;;15.13;;
30096;SDS011;16915;51.466;3.610;2024-03-08T08:32:38;27.08;;;13.77;;
30096;SDS011;16915;51.466;3.610;2024-03-08T08:35:04;28.83;;;14.35;;
30096;SDS011;16915;51.466;3.610;2024-03-08T08:37:31;31.23;;;15.48;;
30096;SDS011;16915;51.466;3.610;2024-03-08T08:39:57;29.85;;;14.80;;
30096;SDS011;16915;51.466;3.610;2024-03-08T08:42:23;32.83;;;15.98;;
30096;SDS011;16915;51.466;3.610;2024-03-08T08:44:49;29.08;;;15.57;;
30096;SDS011;16915;51.466;3.610;2024-03-08T08:47:15;26.58;;;14.70;;
30096;SDS011;16915;51.466;3.610;2024-03-08T08:49:43;25.02;;;12.75;;
30096;SDS011;16915;51.466;3.610;2024-03-08T08:52:11;29.83;;;14.90;;
30096;SDS011;16915;51.466;3.610;2024-03-08T08:54:36;26.90;;;14.60;;
30096;SDS011;16915;51.466;3.610;2024-03-08T08:57:02;25.08;;;14.00;;
30096;SDS011;16915;51.466;3.610;2024-03-08T08:59:32;32.03;;;15.60;;
30096;SDS011;16915;51.466;3.610;2024-03-08T09:02:00;31.50;;;15.30;;
30096;SDS011;16915;51.466;3.610;2024-03-08T09:04:26;25.98;;;11.23;;
30096;SDS011;16915;51.466;3.610;2024-03-08T09:06:53;28.02;;;14.52;;
30096;SDS011;16915;51.466;3.610;2024-03-08T09:09:18;31.75;;;15.60;;
30096;SDS011;16915;51.466;3.610;2024-03-08T09:11:44;24.27;;;13.00;;
30096;SDS011;16915;51.466;3.610;2024-03-08T09:14:11;25.65;;;14.20;;
30096;SDS011;16915;51.466;3.610;2024-03-08T09:16:37;27.10;;;13.65;;
30096;SDS011;16915;51.466;3.610;2024-03-08T09:19:02;29.40;;;14.52;;
30096;SDS011;16915;51.466;3.610;2024-03-08T09:21:28;29.25;;;14.75;;
30096;SDS011;16915;51.466;3.610;2024-03-08T09:23:53;26.17;;;14.32;;
30096;SDS011;16915;51.466;3.610;2024-03-08T09:26:19;25.73;;;13.82;;
30096;SDS011;16915;51.466;3.610;2024-03-08T09:28:45;25.02;;;13.13;;
30096;SDS011;16915;51.466;3.610;2024-03-08T09:31:11;27.85;;;13.75;;
30096;SDS011;16915;51.466;3.610;2024-03-08T09:33:37;26.15;;;13.27;;
30096;SDS011;16915;51.466;3.610;2024-03-08T09:36:04;25.15;;;14.10;;
30096;SDS011;16915;51.466;3.610;2024-03-08T09:38:30;27.20;;;14.13;;
30096;SDS011;16915;51.466;3.610;2024-03-08T09:40:56;25.40;;;13.48;;
30096;SDS011;16915;51.466;3.610;2024-03-08T09:43:22;28.98;;;14.55;;
30096;SDS011;16915;51.466;3.610;2024-03-08T09:45:49;22.80;;;11.90;;
30096;SDS011;16915;51.466;3.610;2024-03-08T09:48:16;25.75;;;14.02;;
30096;SDS011;16915;51.466;3.610;2024-03-08T09:50:44;24.75;;;13.57;;
30096;SDS011;16915;51.466;3.610;2024-03-08T09:53:11;23.33;;;13.55;;
30096;SDS011;16915;51.466;3.610;2024-03-08T09:55:37;21.55;;;13.05;;
30096;SDS011;16915;51.466;3.610;2024-03-08T09:58:07;25.30;;;13.88;;
30096;SDS011;16915;51.466;3.610;2024-03-08T10:00:53;23.50;;;13.25;;
30096;SDS011;16915;51.466;3.610;2024-03-08T10:03:22;26.08;;;13.57;;
30096;SDS011;16915;51.466;3.610;2024-03-08T10:05:48;24.52;;;13.55;;
30096;SDS011;16915;51.466;3.610;2024-03-08T10:08:14;21.52;;;13.20;;
30096;SDS011;16915;51.466;3.610;2024-03-08T10:10:39;19.35;;;11.90;;
30096;SDS011;16915;51.466;3.610;2024-03-08T10:13:08;18.58;;;12.07;;
30096;SDS011;16915;51.466;3.610;2024-03-08T10:15:35;26.88;;;12.13;;
30096;SDS011;16915;51.466;3.610;2024-03-08T10:18:01;21.23;;;12.23;;
30096;SDS011;16915;51.466;3.610;2024-03-08T10:20:27;20.73;;;12.15;;
30096;SDS011;16915;51.466;3.610;2024-03-08T10:22:58;17.85;;;11.23;;
30096;SDS011;16915;51.466;3.610;2024-03-08T10:25:25;18.23;;;10.70;;
30096;SDS011;16915;51.466;3.610;2024-03-08T10:27:50;19.70;;;12.27;;
30096;SDS011;16915;51.466;3.610;2024-03-08T10:30:16;22.58;;;12.15;;
30096;SDS011;16915;51.466;3.610;2024-03-08T10:32:46;18.47;;;11.90;;
30096;SDS011;16915;51.466;3.610;2024-03-08T10:35:13;20.48;;;12.10;;
30096;SDS011;16915;51.466;3.610;2024-03-08T10:40:04;18.27;;;11.70;;
30096;SDS011;16915;51.466;3.610;2024-03-08T10:42:40;22.13;;;12.18;;
30096;SDS011;16915;51.466;3.610;2024-03-08T10:45:15;17.85;;;11.65;;
30096;SDS011;16915;51.466;3.610;2024-03-08T10:48:19;17.15;;;11.00;;
30096;SDS011;16915;51.466;3.610;2024-03-08T10:51:02;17.15;;;12.00;;
30096;SDS011;16915;51.466;3.610;2024-03-08T10:53:28;20.52;;;11.63;;
30096;SDS011;16915;51.466;3.610;2024-03-08T10:55:57;17.00;;;11.25;;
30096;SDS011;16915;51.466;3.610;2024-03-08T10:58:24;16.83;;;11.07;;
30096;SDS011;16915;51.466;3.610;2024-03-08T11:00:55;17.20;;;11.68;;
30096;SDS011;16915;51.466;3.610;2024-03-08T11:06:19;21.80;;;12.07;;
30096;SDS011;16915;51.466;3.610;2024-03-08T11:08:48;16.00;;;10.82;;
30096;SDS011;16915;51.466;3.610;2024-03-08T11:11:23;18.95;;;11.73;;
30096;SDS011;16915;51.466;3.610;2024-03-08T11:13:55;15.55;;;11.77;;
30096;SDS011;16915;51.466;3.610;2024-03-08T11:18:54;19.80;;;11.40;;
30096;SDS011;16915;51.466;3.610;2024-03-08T11:21:23;17.17;;;11.65;;
30096;SDS011;16915;51.466;3.610;2024-03-08T11:24:01;18.95;;;12.27;;
30096;SDS011;16915;51.466;3.610;2024-03-08T11:26:28;15.60;;;11.20;;
30096;SDS011;16915;51.466;3.610;2024-03-08T11:29:11;18.35;;;11.10;;
30096;SDS011;16915;51.466;3.610;2024-03-08T11:32:04;14.68;;;10.48;;
30096;SDS011;16915;51.466;3.610;2024-03-08T11:34:31;16.55;;;11.20;;
30096;SDS011;16915;51.466;3.610;2024-03-08T11:36:58;15.40;;;11.13;;
30096;SDS011;16915;51.466;3.610;2024-03-08T11:39:24;14.27;;;11.05;;
30096;SDS011;16915;51.466;3.610;2024-03-08T11:41:50;16.65;;;11.25;;
30096;SDS011;16915;51.466;3.610;2024-03-08T11:44:16;15.82;;;11.38;;
30096;SDS011;16915;51.466;3.610;2024-03-08T11:46:43;16.35;;;10.82;;
30096;SDS011;16915;51.466;3.610;2024-03-08T11:49:13;15.18;;;10.50;;
30096;SDS011;16915;51.466;3.610;2024-03-08T11:51:39;17.75;;;11.48;;
30096;SDS011;16915;51.466;3.610;2024-03-08T11:54:05;20.08;;;11.07;;
30096;SDS011;16915;51.466;3.610;2024-03-08T11:56:35;17.95;;;11.10;;
30096;SDS011;16915;51.466;3.610;2024-03-08T11:59:01;16.75;;;11.30;;
30096;SDS011;16915;51.466;3.610;2024-03-08T12:01:26;16.08;;;10.68;;
30096;SDS011;16915;51.466;3.610;2024-03-08T12:03:55;14.43;;;10.57;;
30096;SDS011;16915;51.466;3.610;2024-03-08T12:06:25;14.65;;;10.32;;
30096;SDS011;16915;51.466;3.610;2024-03-08T12:08:52;17.08;;;11.30;;
30096;SDS011;16915;51.466;3.610;2024-03-08T12:11:18;16.50;;;10.00;;
30096;SDS011;16915;51.466;3.610;2024-03-08T12:13:48;17.98;;;11.13;;
30096;SDS011;16915;51.466;3.610;2024-03-08T12:16:15;15.57;;;9.88;;
30096;SDS011;16915;51.466;3.610;2024-03-08T12:18:42;15.13;;;10.35;;
30096;SDS011;16915;51.466;3.610;2024-03-08T12:21:10;15.82;;;10.13;;
30096;SDS011;16915;51.466;3.610;2024-03-08T12:23:37;17.48;;;10.77;;
30096;SDS011;16915;51.466;3.610;2024-03-08T12:26:13;15.65;;;10.05;;
30096;SDS011;16915;51.466;3.610;2024-03-08T12:28:43;15.52;;;10.43;;
30096;SDS011;16915;51.466;3.610;2024-03-08T12:31:13;15.20;;;10.40;;
30096;SDS011;16915;51.466;3.610;2024-03-08T12:33:52;16.27;;;11.10;;
30096;SDS011;16915;51.466;3.610;2024-03-08T12:36:19;19.65;;;10.82;;
30096;SDS011;16915;51.466;3.610;2024-03-08T12:38:45;15.95;;;10.80;;
30096;SDS011;16915;51.466;3.610;2024-03-08T12:41:18;16.05;;;11.23;;
30096;SDS011;16915;51.466;3.610;2024-03-08T12:43:47;15.45;;;11.32;;
30096;SDS011;16915;51.466;3.610;2024-03-08T12:46:20;17.23;;;11.45;;
30096;SDS011;16915;51.466;3.610;2024-03-08T12:48:46;14.60;;;10.90;;
30096;SDS011;16915;51.466;3.610;2024-03-08T12:51:12;16.80;;;11.00;;
30096;SDS011;16915;51.466;3.610;2024-03-08T12:53:38;17.98;;;11.90;;
30096;SDS011;16915;51.466;3.610;2024-03-08T12:56:06;14.13;;;11.05;;
30096;SDS011;16915;51.466;3.610;2024-03-08T12:58:34;16.48;;;12.15;;
30096;SDS011;16915;51.466;3.610;2024-03-08T13:01:01;14.02;;;10.52;;
30096;SDS011;16915;51.466;3.610;2024-03-08T13:03:29;14.85;;;10.38;;
30096;SDS011;16915;51.466;3.610;2024-03-08T13:05:56;16.33;;;11.40;;
30096;SDS011;16915;51.466;3.610;2024-03-08T13:08:22;17.55;;;10.65;;
30096;SDS011;16915;51.466;3.610;2024-03-08T13:10:50;15.18;;;11.00;;
30096;SDS011;16915;51.466;3.610;2024-03-08T13:13:16;14.25;;;10.90;;
30096;SDS011;16915;51.466;3.610;2024-03-08T13:15:44;14.50;;;10.60;;
30096;SDS011;16915;51.466;3.610;2024-03-08T13:18:10;15.50;;;10.73;;
30096;SDS011;16915;51.466;3.610;2024-03-08T13:20:36;16.88;;;10.98;;
30096;SDS011;16915;51.466;3.610;2024-03-08T13:23:04;15.73;;;11.18;;
30096;SDS011;16915;51.466;3.610;2024-03-08T13:25:30;15.23;;;11.07;;
30096;SDS011;16915;51.466;3.610;2024-03-08T13:27:56;14.55;;;10.55;;
30096;SDS011;16915;51.466;3.610;2024-03-08T13:30:24;17.65;;;11.05;;
30096;SDS011;16915;51.466;3.610;2024-03-08T13:32:52;19.33;;;11.70;;
30096;SDS011;16915;51.466;3.610;2024-03-08T13:35:18;18.10;;;11.43;;
30096;SDS011;16915;51.466;3.610;2024-03-08T13:40:15;15.43;;;10.05;;
30096;SDS011;16915;51.466;3.610;2024-03-08T13:42:43;13.82;;;9.30;;
30096;SDS011;16915;51.466;3.610;2024-03-08T13:45:09;14.88;;;11.20;;
30096;SDS011;16915;51.466;3.610;2024-03-08T13:47:36;16.55;;;11.23;;
30096;SDS011;16915;51.466;3.610;2024-03-08T13:50:02;16.20;;;10.80;;
30096;SDS011;16915;51.466;3.610;2024-03-08T13:52:29;20.17;;;10.88;;
30096;SDS011;16915;51.466;3.610;2024-03-08T13:54:54;16.05;;;10.90;;
30096;SDS011;16915;51.466;3.610;2024-03-08T13:57:21;15.70;;;10.90;;
30096;SDS011;16915;51.466;3.610;2024-03-08T13:59:47;16.75;;;11.52;;
30096;SDS011;16915;51.466;3.610;2024-03-08T14:02:14;15.90;;;11.75;;
30096;SDS011;16915;51.466;3.610;2024-03-08T14:04:42;16.10;;;11.48;;
30096;SDS011;16915;51.466;3.610;2024-03-08T14:07:11;16.63;;;11.60;;
30096;SDS011;16915;51.466;3.610;2024-03-08T14:09:41;17.10;;;11.25;;
30096;SDS011;16915;51.466;3.610;2024-03-08T14:12:08;16.52;;;11.70;;
30096;SDS011;16915;51.466;3.610;2024-03-08T14:14:34;19.38;;;11.25;;
30096;SDS011;16915;51.466;3.610;2024-03-08T14:17:00;17.40;;;11.13;;
30096;SDS011;16915;51.466;3.610;2024-03-08T14:19:27;19.70;;;11.38;;
30096;SDS011;16915;51.466;3.610;2024-03-08T14:22:01;16.80;;;10.32;;
30096;SDS011;16915;51.466;3.610;2024-03-08T14:24:29;17.02;;;10.25;;
30096;SDS011;16915;51.466;3.610;2024-03-08T14:26:55;19.65;;;10.82;;
30096;SDS011;16915;51.466;3.610;2024-03-08T14:29:24;19.20;;;11.68;;
30096;SDS011;16915;51.466;3.610;2024-03-08T14:31:54;18.55;;;11.15;;
30096;SDS011;16915;51.466;3.610;2024-03-08T14:34:23;18.52;;;11.32;;
30096;SDS011;16915;51.466;3.610;2024-03-08T14:36:52;15.63;;;9.98;;